createdAt,value
2017-08-25T00:01:44.007Z,100634.93
2017-08-25T00:04:11.750Z,100638.78
2017-08-25T00:06:39.147Z,100637.48
2017-08-25T00:09:06.544Z,100637.27
2017-08-25T00:11:33.987Z,100635.19
2017-08-25T00:14:01.382Z,100636.20
2017-08-25T00:16:28.778Z,100640.82
2017-08-25T00:18:56.331Z,100636.97
2017-08-25T00:21:23.723Z,100635.21
2017-08-25T00:23:51.114Z,100631.24
2017-08-25T00:26:18.786Z,100634.30
2017-08-25T00:28:46.186Z,100639.03
2017-08-25T00:31:13.578Z,100640.59
2017-08-25T00:33:41.082Z,100640.16
2017-08-25T00:36:08.487Z,100644.42
2017-08-25T00:38:35.880Z,100642.66
2017-08-25T00:41:03.304Z,100650.16
2017-08-25T00:43:30.698Z,100651.36
2017-08-25T00:45:58.095Z,100659.64
2017-08-25T00:48:25.894Z,100646.95
2017-08-25T00:50:53.290Z,100644.61
2017-08-25T00:53:20.686Z,100648.17
2017-08-25T00:55:48.090Z,100646.05
2017-08-25T00:58:15.483Z,100650.86
2017-08-25T01:00:42.878Z,100656.80
2017-08-25T01:03:10.430Z,100657.02
2017-08-25T01:05:37.831Z,100662.19
2017-08-25T01:08:05.230Z,100661.55
2017-08-25T01:10:32.775Z,100660.05
2017-08-25T01:13:00.197Z,100654.56
2017-08-25T01:15:27.582Z,100659.53
2017-08-25T01:17:55.386Z,100662.22
2017-08-25T01:20:22.785Z,100664.63
2017-08-25T01:22:50.183Z,100657.22
2017-08-25T01:25:17.686Z,100664.88
2017-08-25T01:27:45.088Z,100657.89
2017-08-25T01:30:12.483Z,100667.53
2017-08-25T01:32:39.898Z,100664.77
2017-08-25T01:35:07.294Z,100659.42
2017-08-25T01:37:34.687Z,100664.98
2017-08-25T01:40:02.094Z,100667.19
2017-08-25T01:42:29.491Z,100673.78
2017-08-25T01:44:56.882Z,100668.75
2017-08-25T01:47:24.447Z,100669.20
2017-08-25T01:49:51.825Z,100674.69
2017-08-25T01:52:19.219Z,100669.22
2017-08-25T01:54:46.638Z,100671.26
2017-08-25T01:57:14.034Z,100663.72
2017-08-25T01:59:41.438Z,100668.38
2017-08-25T02:02:08.842Z,100665.94
2017-08-25T02:04:36.243Z,100667.63
2017-08-25T02:07:03.631Z,100664.11
2017-08-25T02:09:31.180Z,100664.11
2017-08-25T02:11:58.570Z,100668.78
2017-08-25T02:14:25.966Z,100669.54
2017-08-25T02:16:53.518Z,100665.16
2017-08-25T02:19:20.911Z,100667.34
2017-08-25T02:21:51.115Z,100668.38
2017-08-25T02:24:18.682Z,100662.78
2017-08-25T02:26:46.082Z,100665.40
2017-08-25T02:29:13.491Z,100657.80
2017-08-25T02:31:40.938Z,100664.52
2017-08-25T02:34:08.332Z,100665.14
2017-08-25T02:36:35.730Z,100661.08
2017-08-25T02:39:03.284Z,100667.72
2017-08-25T02:41:30.684Z,100670.12
2017-08-25T02:43:58.078Z,100664.28
2017-08-25T02:46:25.637Z,100662.75
2017-08-25T02:48:53.026Z,100658.33
2017-08-25T02:51:20.425Z,100658.55
2017-08-25T02:53:47.976Z,100650.07
2017-08-25T02:56:15.370Z,100656.31
2017-08-25T02:58:42.779Z,100661.13
2017-08-25T03:01:10.189Z,100657.80
2017-08-25T03:03:37.583Z,100652.36
2017-08-25T03:06:04.979Z,100649.89
2017-08-25T03:08:32.527Z,100647.04
2017-08-25T03:10:59.930Z,100646.09
2017-08-25T03:13:27.322Z,100648.54
2017-08-25T03:15:55.182Z,100654.38
2017-08-25T03:18:22.578Z,100657.46
2017-08-25T03:20:49.978Z,100656.76
2017-08-25T03:23:17.558Z,100653.12
2017-08-25T03:25:44.958Z,100656.91
2017-08-25T03:28:12.350Z,100659.08
2017-08-25T03:30:39.760Z,100657.37
2017-08-25T03:33:07.168Z,100647.19
2017-08-25T03:35:34.567Z,100646.60
2017-08-25T03:38:02.115Z,100647.70
2017-08-25T03:40:29.514Z,100643.42
2017-08-25T03:42:56.910Z,100646.16
2017-08-25T03:45:24.463Z,100639.03
2017-08-25T03:47:51.866Z,100641.25
2017-08-25T03:50:19.266Z,100635.11
2017-08-25T03:52:46.821Z,100640.61
2017-08-25T03:55:14.218Z,100642.45
2017-08-25T03:57:41.623Z,100654.09
2017-08-25T04:00:09.419Z,100654.90
2017-08-25T04:02:36.819Z,100657.00
2017-08-25T04:05:04.210Z,100658.34
2017-08-25T04:07:31.650Z,100658.64
2017-08-25T04:09:59.042Z,100661.31
2017-08-25T04:12:26.436Z,100664.21
2017-08-25T04:14:53.976Z,100664.97
2017-08-25T04:17:21.375Z,100666.69
2017-08-25T04:19:48.770Z,100668.03
2017-08-25T04:22:16.190Z,100666.31
2017-08-25T04:24:43.590Z,100665.01
2017-08-25T04:27:10.979Z,100668.53
2017-08-25T04:29:38.455Z,100670.87
2017-08-25T04:32:05.867Z,100669.17
2017-08-25T04:34:33.283Z,100666.69
2017-08-25T04:37:00.826Z,100667.10
2017-08-25T04:39:28.249Z,100667.47
2017-08-25T04:41:55.627Z,100673.58
2017-08-25T04:44:23.062Z,100674.25
2017-08-25T04:46:50.455Z,100681.59
2017-08-25T04:49:17.847Z,100676.84
2017-08-25T04:51:45.294Z,100682.59
2017-08-25T04:54:12.691Z,100686.95
2017-08-25T04:56:40.086Z,100682.13
2017-08-25T04:59:07.530Z,100686.89
2017-08-25T05:01:34.926Z,100682.52
2017-08-25T05:04:02.322Z,100681.14
2017-08-25T05:06:29.734Z,100682.92
2017-08-25T05:08:57.126Z,100690.58
2017-08-25T05:11:24.526Z,100682.13
2017-08-25T05:13:51.971Z,100677.44
2017-08-25T05:16:19.374Z,100686.23
2017-08-25T05:18:46.770Z,100687.95
2017-08-25T05:21:14.694Z,100687.09
2017-08-25T05:23:42.091Z,100686.81
2017-08-25T05:26:09.483Z,100688.56
2017-08-25T05:28:37.028Z,100679.62
2017-08-25T05:31:04.422Z,100682.26
2017-08-25T05:33:31.823Z,100670.94
2017-08-25T05:35:59.367Z,100668.34
2017-08-25T05:38:26.763Z,100669.77
2017-08-25T05:40:54.166Z,100663.66
2017-08-25T05:43:21.714Z,100659.46
2017-08-25T05:45:49.111Z,100661.83
2017-08-25T05:48:16.505Z,100662.31
2017-08-25T05:50:44.062Z,100668.34
2017-08-25T05:53:11.455Z,100676.92
2017-08-25T05:55:38.863Z,100682.30
2017-08-25T05:58:06.375Z,100687.97
2017-08-25T06:00:33.765Z,100682.23
2017-08-25T06:03:01.154Z,100674.36
2017-08-25T06:05:28.659Z,100685.00
2017-08-25T06:07:56.063Z,100685.55
2017-08-25T06:10:23.459Z,100683.91
2017-08-25T06:12:50.878Z,100681.40
2017-08-25T06:15:18.278Z,100681.19
2017-08-25T06:17:45.686Z,100681.70
2017-08-25T06:20:13.097Z,100685.41
2017-08-25T06:22:40.495Z,100686.25
2017-08-25T06:25:07.889Z,100683.64
2017-08-25T06:27:35.441Z,100682.64
2017-08-25T06:30:03.367Z,100682.17
2017-08-25T06:32:30.767Z,100691.71
2017-08-25T06:34:58.618Z,100695.61
2017-08-25T06:37:26.026Z,100700.16
2017-08-25T06:39:53.447Z,100705.80
2017-08-25T06:42:21.007Z,100713.18
2017-08-25T06:44:48.398Z,100711.67
2017-08-25T06:47:15.795Z,100713.56
2017-08-25T06:49:43.578Z,100707.29
2017-08-25T06:52:10.987Z,100704.23
2017-08-25T06:54:38.383Z,100702.56
2017-08-25T06:57:05.805Z,100700.28
2017-08-25T06:59:33.198Z,100702.28
2017-08-25T07:02:00.601Z,100692.98
2017-08-25T07:04:28.035Z,100694.99
2017-08-25T07:06:55.429Z,100698.17
2017-08-25T07:09:22.824Z,100703.69
2017-08-25T07:11:50.334Z,100701.56
2017-08-25T07:14:17.721Z,100700.39
2017-08-25T07:16:45.124Z,100697.41
2017-08-25T07:19:12.667Z,100703.61
2017-08-25T07:21:40.078Z,100705.57
2017-08-25T07:24:07.467Z,100713.52
2017-08-25T07:26:35.228Z,100710.94
2017-08-25T07:29:02.626Z,100715.77
2017-08-25T07:31:30.026Z,100713.69
2017-08-25T07:33:57.467Z,100723.25
2017-08-25T07:36:24.871Z,100719.92
2017-08-25T07:38:52.299Z,100723.22
2017-08-25T07:41:19.733Z,100727.60
2017-08-25T07:43:47.139Z,100732.22
2017-08-25T07:46:14.534Z,100739.05
2017-08-25T07:48:42.078Z,100739.57
2017-08-25T07:51:09.487Z,100744.09
2017-08-25T07:53:36.895Z,100740.39
2017-08-25T07:56:04.720Z,100741.36
2017-08-25T07:58:32.131Z,100733.90
2017-08-25T08:00:59.531Z,100731.06
2017-08-25T08:03:26.991Z,100727.39
2017-08-25T08:05:54.396Z,100721.91
2017-08-25T08:08:21.786Z,100722.30
2017-08-25T08:10:49.235Z,100722.98
2017-08-25T08:13:16.633Z,100724.56
2017-08-25T08:15:44.030Z,100717.53
2017-08-25T08:18:11.835Z,100721.70
2017-08-25T08:20:39.233Z,100721.37
2017-08-25T08:23:06.638Z,100721.39
2017-08-25T08:25:34.226Z,100725.64
2017-08-25T08:28:01.622Z,100729.86
2017-08-25T08:30:29.018Z,100729.24
2017-08-25T08:32:56.426Z,100727.33
2017-08-25T08:35:23.830Z,100722.91
2017-08-25T08:37:51.226Z,100718.86
2017-08-25T08:40:18.735Z,100714.81
2017-08-25T08:42:46.146Z,100708.70
2017-08-25T08:45:13.539Z,100712.24
2017-08-25T08:47:40.949Z,100709.81
2017-08-25T08:50:08.346Z,100711.47
2017-08-25T08:52:35.752Z,100712.89
2017-08-25T08:55:03.295Z,100716.72
2017-08-25T08:57:30.693Z,100715.64
2017-08-25T08:59:58.091Z,100712.09
2017-08-25T09:02:25.635Z,100715.66
2017-08-25T09:04:53.042Z,100713.48
2017-08-25T09:07:20.440Z,100708.34
2017-08-25T09:09:47.983Z,100710.59
2017-08-25T09:12:15.374Z,100709.73
2017-08-25T09:14:42.767Z,100703.56
2017-08-25T09:17:10.611Z,100720.16
2017-08-25T09:19:37.997Z,100724.41
2017-08-25T09:22:05.395Z,100719.52
2017-08-25T09:24:32.795Z,100712.79
2017-08-25T09:27:00.194Z,100704.46
2017-08-25T09:29:27.591Z,100702.04
2017-08-25T09:31:55.155Z,100693.12
2017-08-25T09:34:22.557Z,100689.69
2017-08-25T09:36:49.967Z,100693.09
2017-08-25T09:39:17.377Z,100681.30
2017-08-25T09:41:44.794Z,100680.02
2017-08-25T09:44:12.177Z,100673.03
2017-08-25T09:46:40.096Z,100671.93
2017-08-25T09:49:07.490Z,100678.99
2017-08-25T09:51:34.902Z,100673.20
2017-08-25T09:54:02.455Z,100670.08
2017-08-25T09:56:30.072Z,100670.03
2017-08-25T09:58:57.464Z,100673.64
2017-08-25T10:01:24.870Z,100682.56
2017-08-25T10:03:52.266Z,100679.11
2017-08-25T10:06:19.677Z,100682.14
2017-08-25T10:08:47.436Z,100677.08
2017-08-25T10:11:14.857Z,100681.34
2017-08-25T10:13:42.249Z,100682.58
2017-08-25T10:16:09.810Z,100679.34
2017-08-25T10:18:37.218Z,100674.73
2017-08-25T10:21:04.614Z,100675.11
2017-08-25T10:23:32.170Z,100671.05
2017-08-25T10:25:59.566Z,100671.80
2017-08-25T10:28:26.970Z,100675.80
2017-08-25T10:30:54.531Z,100669.02
2017-08-25T10:33:33.689Z,100673.55
2017-08-25T10:36:12.806Z,100674.45
2017-08-25T10:38:51.846Z,100672.85
2017-08-25T10:41:31.303Z,100668.30
2017-08-25T10:44:10.363Z,100665.07
2017-08-25T10:46:37.807Z,100658.52
2017-08-25T10:49:05.198Z,100659.09
2017-08-25T10:51:32.598Z,100650.94
2017-08-25T10:54:00.105Z,100643.33
2017-08-25T10:56:27.503Z,100641.23
2017-08-25T10:58:54.910Z,100632.67
2017-08-25T11:01:22.459Z,100633.76
2017-08-25T11:03:49.855Z,100638.59
2017-08-25T11:06:17.259Z,100631.27
2017-08-25T11:08:44.679Z,100633.63
2017-08-25T11:11:12.083Z,100633.25
2017-08-25T11:13:39.478Z,100630.06
2017-08-25T11:16:07.034Z,100636.17
2017-08-25T11:18:34.430Z,100628.88
2017-08-25T11:21:01.835Z,100625.54
2017-08-25T11:23:29.367Z,100625.44
2017-08-25T11:25:56.762Z,100619.31
2017-08-25T11:28:24.158Z,100612.70
2017-08-25T11:30:51.667Z,100615.80
2017-08-25T11:33:19.070Z,100617.56
2017-08-25T11:35:46.466Z,100615.02
2017-08-25T11:38:14.014Z,100609.05
2017-08-25T11:40:41.410Z,100609.37
2017-08-25T11:43:08.810Z,100612.94
2017-08-25T11:45:36.370Z,100613.27
2017-08-25T11:48:03.762Z,100614.16
2017-08-25T11:50:31.159Z,100615.38
2017-08-25T11:52:58.567Z,100620.30
2017-08-25T11:55:26.018Z,100615.80
2017-08-25T11:57:53.402Z,100620.08
2017-08-25T12:00:20.956Z,100612.95
2017-08-25T12:02:48.356Z,100616.25
2017-08-25T12:05:15.747Z,100611.58
2017-08-25T12:07:43.299Z,100601.61
2017-08-25T12:10:10.696Z,100601.95
2017-08-25T12:12:38.090Z,100602.41
2017-08-25T12:15:05.642Z,100602.34
2017-08-25T12:17:33.039Z,100609.08
2017-08-25T12:20:00.433Z,100610.22
2017-08-25T12:22:28.079Z,100614.72
2017-08-25T12:24:55.473Z,100615.95
2017-08-25T12:27:22.866Z,100609.47
2017-08-25T12:29:50.377Z,100599.07
2017-08-25T12:32:17.791Z,100601.92
2017-08-25T12:34:45.184Z,100599.72
2017-08-25T12:37:13.034Z,100606.51
2017-08-25T12:39:40.431Z,100606.72
2017-08-25T12:42:07.826Z,100606.84
2017-08-25T12:44:35.602Z,100603.64
2017-08-25T12:47:02.998Z,100601.20
2017-08-25T12:49:30.395Z,100594.91
2017-08-25T12:51:57.838Z,100587.56
2017-08-25T12:54:25.234Z,100595.43
2017-08-25T12:56:52.625Z,100585.67
2017-08-25T12:59:20.048Z,100582.46
2017-08-25T13:01:47.452Z,100579.55
2017-08-25T13:04:14.831Z,100575.91
2017-08-25T13:06:42.386Z,100577.08
2017-08-25T13:09:09.775Z,100570.58
2017-08-25T13:11:37.171Z,100565.83
2017-08-25T13:14:04.895Z,100554.45
2017-08-25T13:16:32.295Z,100555.83
2017-08-25T13:18:59.686Z,100553.34
2017-08-25T13:21:27.274Z,100561.46
2017-08-25T13:23:54.673Z,100555.72
2017-08-25T13:26:22.063Z,100556.16
2017-08-25T13:28:49.619Z,100549.15
2017-08-25T13:31:17.014Z,100548.79
2017-08-25T13:33:44.414Z,100544.50
2017-08-25T13:36:11.923Z,100541.21
2017-08-25T13:38:39.326Z,100538.70
2017-08-25T13:41:06.715Z,100543.02
2017-08-25T13:43:34.158Z,100540.72
2017-08-25T13:46:01.554Z,100537.25
2017-08-25T13:48:28.950Z,100537.05
2017-08-25T13:50:56.698Z,100535.78
2017-08-25T13:53:24.090Z,100535.51
2017-08-25T13:55:51.496Z,100538.23
2017-08-25T13:58:19.012Z,100538.79
2017-08-25T14:00:46.401Z,100546.19
2017-08-25T14:03:13.802Z,100536.20
2017-08-25T14:05:41.501Z,100537.16
2017-08-25T14:08:08.890Z,100538.22
2017-08-25T14:10:36.287Z,100537.81
2017-08-25T14:13:04.027Z,100537.94
2017-08-25T14:15:31.429Z,100532.75
2017-08-25T14:17:58.828Z,100537.24
2017-08-25T14:20:26.375Z,100527.39
2017-08-25T14:22:53.778Z,100519.34
2017-08-25T14:25:21.174Z,100520.88
2017-08-25T14:27:48.595Z,100517.73
2017-08-25T14:30:15.986Z,100509.84
2017-08-25T14:32:43.381Z,100517.73
2017-08-25T14:35:10.811Z,100513.96
2017-08-25T14:37:38.209Z,100510.95
2017-08-25T14:40:05.603Z,100514.19
2017-08-25T14:42:33.977Z,100508.89
2017-08-25T14:45:01.380Z,100514.09
2017-08-25T14:47:28.770Z,100508.36
2017-08-25T14:49:56.324Z,100499.89
2017-08-25T14:52:23.718Z,100498.82
2017-08-25T14:54:51.114Z,100504.28
2017-08-25T14:57:18.524Z,100509.97
2017-08-25T14:59:45.920Z,100510.78
2017-08-25T15:02:13.327Z,100519.59
2017-08-25T15:04:40.742Z,100513.29
2017-08-25T15:07:08.142Z,100509.99
2017-08-25T15:09:35.543Z,100483.95
2017-08-25T15:12:03.459Z,100470.69
2017-08-25T15:14:30.856Z,100460.29
2017-08-25T15:16:58.259Z,100459.91
2017-08-25T15:19:25.810Z,100452.94
2017-08-25T15:21:53.200Z,100454.84
2017-08-25T15:24:20.602Z,100459.50
2017-08-25T15:26:48.139Z,100449.09
2017-08-25T15:29:15.540Z,100445.52
2017-08-25T15:31:42.939Z,100440.64
2017-08-25T15:34:10.487Z,100445.23
2017-08-25T15:36:37.894Z,100443.78
2017-08-25T15:39:05.287Z,100447.00
2017-08-25T15:41:33.155Z,100439.98
2017-08-25T15:44:00.555Z,100436.95
2017-08-25T15:46:27.946Z,100441.80
2017-08-25T15:48:55.350Z,100438.00
2017-08-25T15:51:22.785Z,100436.38
2017-08-25T15:53:50.158Z,100435.00
2017-08-25T15:56:17.563Z,100434.13
2017-08-25T15:58:44.960Z,100438.88
2017-08-25T16:01:12.357Z,100436.09
2017-08-25T16:03:39.899Z,100444.27
2017-08-25T16:06:07.298Z,100448.81
2017-08-25T16:08:34.695Z,100453.20
2017-08-25T16:11:02.102Z,100449.80
2017-08-25T16:13:29.509Z,100449.28
2017-08-25T16:15:56.903Z,100447.48
2017-08-25T16:18:24.454Z,100452.16
2017-08-25T16:20:51.852Z,100445.27
2017-08-25T16:23:19.275Z,100452.22
2017-08-25T16:25:47.182Z,100440.87
2017-08-25T16:28:14.603Z,100441.47
2017-08-25T16:30:42.018Z,100440.06
2017-08-25T16:33:09.582Z,100432.16
2017-08-25T16:35:36.984Z,100423.64
2017-08-25T16:38:04.383Z,100424.95
2017-08-25T16:40:31.804Z,100417.69
2017-08-25T16:42:59.198Z,100413.71
2017-08-25T16:45:26.595Z,100419.87
2017-08-25T16:47:54.166Z,100418.38
2017-08-25T16:50:21.566Z,100406.97
2017-08-25T16:52:48.967Z,100415.83
2017-08-25T16:55:16.408Z,100406.00
2017-08-25T16:57:43.807Z,100403.06
2017-08-25T17:00:11.202Z,100407.98
2017-08-25T17:02:38.746Z,100403.98
2017-08-25T17:05:06.147Z,100400.36
2017-08-25T17:07:33.545Z,100400.95
2017-08-25T17:10:01.064Z,100395.33
2017-08-25T17:12:28.461Z,100388.54
2017-08-25T17:14:55.860Z,100389.84
2017-08-25T17:17:23.410Z,100378.73
2017-08-25T17:19:50.806Z,100374.48
2017-08-25T17:22:18.215Z,100370.09
2017-08-25T17:24:45.731Z,100367.59
2017-08-25T17:27:13.126Z,100371.64
2017-08-25T17:29:40.514Z,100382.36
2017-08-25T17:32:07.935Z,100392.41
2017-08-25T17:34:35.329Z,100401.07
2017-08-25T17:37:02.731Z,100399.45
2017-08-25T17:39:30.180Z,100410.13
2017-08-25T17:41:57.570Z,100423.26
2017-08-25T17:44:24.966Z,100419.14
2017-08-25T17:46:52.867Z,100415.59
2017-08-25T17:49:20.272Z,100410.30
2017-08-25T17:51:47.667Z,100414.41
2017-08-25T17:54:15.374Z,100415.44
2017-08-25T17:56:42.770Z,100418.55
2017-08-25T17:59:10.168Z,100428.57
2017-08-25T18:01:37.606Z,100422.58
2017-08-25T18:04:05.002Z,100420.32
2017-08-25T18:06:32.399Z,100422.18
2017-08-25T18:08:59.959Z,100422.09
2017-08-25T18:11:27.356Z,100422.34
2017-08-25T18:13:54.751Z,100426.13
2017-08-25T18:16:22.302Z,100425.20
2017-08-25T18:18:49.718Z,100433.22
2017-08-25T18:21:17.116Z,100431.89
2017-08-25T18:23:44.544Z,100433.07
2017-08-25T18:26:11.934Z,100421.62
2017-08-25T18:28:39.338Z,100429.69
2017-08-25T18:31:06.757Z,100432.25
2017-08-25T18:33:34.150Z,100432.06
2017-08-25T18:36:01.551Z,100435.27
2017-08-25T18:38:29.050Z,100432.56
2017-08-25T18:40:56.450Z,100432.05
2017-08-25T18:43:23.844Z,100434.92
2017-08-25T18:45:51.587Z,100426.50
2017-08-25T18:48:18.982Z,100427.55
2017-08-25T18:50:46.378Z,100427.72
2017-08-25T18:53:13.823Z,100421.27
2017-08-25T18:55:41.219Z,100422.86
2017-08-25T18:58:08.616Z,100428.63
2017-08-25T19:00:36.175Z,100433.47
2017-08-25T19:03:03.597Z,100438.34
2017-08-25T19:05:31.011Z,100442.02
2017-08-25T19:07:58.572Z,100431.31
2017-08-25T19:10:25.967Z,100433.94
2017-08-25T19:12:53.375Z,100431.53
2017-08-25T19:15:21.134Z,100436.47
2017-08-25T19:17:48.529Z,100437.16
2017-08-25T19:20:15.939Z,100438.16
2017-08-25T19:22:43.482Z,100437.91
2017-08-25T19:25:10.882Z,100439.78
2017-08-25T19:27:38.271Z,100429.97
2017-08-25T19:30:05.715Z,100431.53
2017-08-25T19:32:33.106Z,100438.75
2017-08-25T19:35:00.502Z,100437.59
2017-08-25T19:37:28.046Z,100426.41
2017-08-25T19:39:55.450Z,100430.74
2017-08-25T19:42:22.850Z,100428.48
2017-08-25T19:44:50.258Z,100424.68
2017-08-25T19:47:17.657Z,100416.66
2017-08-25T19:49:45.050Z,100422.00
2017-08-25T19:52:12.629Z,100413.98
2017-08-25T19:54:40.018Z,100419.45
2017-08-25T19:57:07.410Z,100418.23
2017-08-25T19:59:35.162Z,100419.63
2017-08-25T20:02:02.562Z,100416.19
2017-08-25T20:04:29.960Z,100411.00
2017-08-25T20:06:57.375Z,100401.71
2017-08-25T20:09:24.775Z,100402.27
2017-08-25T20:11:52.174Z,100414.33
2017-08-25T20:14:19.582Z,100404.16
2017-08-25T20:16:46.978Z,100409.87
2017-08-25T20:19:14.384Z,100411.59
2017-08-25T20:21:41.924Z,100409.05
2017-08-25T20:24:09.331Z,100407.55
2017-08-25T20:26:36.745Z,100412.30
2017-08-25T20:29:04.159Z,100417.06
2017-08-25T20:31:31.554Z,100416.66
2017-08-25T20:33:58.950Z,100410.29
2017-08-25T20:36:26.370Z,100407.89
2017-08-25T20:38:53.766Z,100421.30
2017-08-25T20:41:21.171Z,100415.87
2017-08-25T20:43:48.713Z,100411.81
2017-08-25T20:46:16.128Z,100410.75
2017-08-25T20:48:43.545Z,100412.35
2017-08-25T20:51:11.043Z,100414.52
2017-08-25T20:53:38.440Z,100418.46
2017-08-25T20:56:05.834Z,100417.23
2017-08-25T20:58:33.387Z,100409.64
2017-08-25T21:01:00.783Z,100404.91
2017-08-25T21:03:28.186Z,100408.99
2017-08-25T21:05:55.730Z,100411.41
2017-08-25T21:08:23.134Z,100413.71
2017-08-25T21:10:50.530Z,100404.62
2017-08-25T21:13:18.679Z,100401.12
2017-08-25T21:15:46.106Z,100399.78
2017-08-25T21:18:13.507Z,100394.08
2017-08-25T21:20:40.943Z,100389.45
2017-08-25T21:23:08.347Z,100391.46
2017-08-25T21:25:35.746Z,100392.82
2017-08-25T21:28:03.304Z,100383.73
2017-08-25T21:30:30.726Z,100383.33
2017-08-25T21:32:58.161Z,100387.55
2017-08-25T21:35:25.602Z,100387.38
2017-08-25T21:37:52.999Z,100389.65
2017-08-25T21:40:20.394Z,100391.18
2017-08-25T21:42:47.940Z,100402.70
2017-08-25T21:45:15.363Z,100409.87
2017-08-25T21:47:42.771Z,100414.19
2017-08-25T21:50:10.346Z,100412.68
2017-08-25T21:52:37.751Z,100398.81
2017-08-25T21:55:05.152Z,100397.73
2017-08-25T21:57:32.704Z,100403.72
2017-08-25T22:00:00.109Z,100404.81
2017-08-25T22:02:27.507Z,100410.38
2017-08-25T22:04:55.294Z,100407.41
2017-08-25T22:07:22.699Z,100414.06
2017-08-25T22:09:50.143Z,100403.77
2017-08-25T22:12:17.558Z,100409.47
2017-08-25T22:14:44.973Z,100410.29
2017-08-25T22:17:12.379Z,100402.83
2017-08-25T22:19:39.892Z,100414.38
2017-08-25T22:22:07.286Z,100420.50
2017-08-25T22:24:34.727Z,100416.43
2017-08-25T22:27:02.312Z,100414.92
2017-08-25T22:29:29.704Z,100411.53
2017-08-25T22:31:57.355Z,100403.69
2017-08-25T22:34:24.898Z,100409.26
2017-08-25T22:36:52.308Z,100407.48
2017-08-25T22:39:19.714Z,100403.29
2017-08-25T22:41:47.568Z,100406.30
2017-08-25T22:44:14.966Z,100417.40
2017-08-25T22:46:42.378Z,100414.02
2017-08-25T22:49:09.926Z,100411.16
2017-08-25T22:51:37.330Z,100412.24
2017-08-25T22:54:04.730Z,100411.03
2017-08-25T22:56:32.232Z,100412.27
2017-08-25T22:58:59.630Z,100404.80
2017-08-25T23:01:27.027Z,100391.94
2017-08-25T23:03:54.524Z,100379.31
2017-08-25T23:06:21.938Z,100378.66
2017-08-25T23:08:49.335Z,100385.02
2017-08-25T23:11:16.770Z,100382.20
2017-08-25T23:13:44.201Z,100376.23
2017-08-25T23:16:11.599Z,100380.41
2017-08-25T23:18:39.014Z,100380.57
2017-08-25T23:21:06.410Z,100373.38
2017-08-25T23:23:33.806Z,100374.47
2017-08-25T23:26:01.355Z,100364.16
2017-08-25T23:28:28.762Z,100357.13
2017-08-25T23:30:56.163Z,100358.90
2017-08-25T23:33:23.666Z,100366.65
2017-08-25T23:35:51.074Z,100361.89
2017-08-25T23:38:18.467Z,100357.82
2017-08-25T23:40:45.903Z,100366.49
2017-08-25T23:43:13.310Z,100380.86
2017-08-25T23:45:41.419Z,100389.68
2017-08-25T23:48:08.964Z,100388.59
2017-08-25T23:50:36.366Z,100391.84
2017-08-25T23:53:04.220Z,100399.02
2017-08-25T23:55:31.645Z,100404.71
2017-08-25T23:57:59.055Z,100405.77
